createdAt,value
2022-12-18T00:01:38.104Z,-3.16
2022-12-18T00:04:21.047Z,-3.16
2022-12-18T00:06:51.291Z,-3.15
2022-12-18T00:09:21.535Z,-3.16
2022-12-18T00:11:55.088Z,-3.17
2022-12-18T00:14:24.165Z,-3.16
2022-12-18T00:16:53.729Z,-3.17
2022-12-18T00:19:29.361Z,-3.16
2022-12-18T00:21:59.470Z,-3.16
2022-12-18T00:24:29.159Z,-3.16
2022-12-18T00:26:59.196Z,-3.15
2022-12-18T00:29:29.255Z,-3.16
2022-12-18T00:31:58.722Z,-3.16
2022-12-18T00:34:30.594Z,-3.14
2022-12-18T00:37:00.679Z,-3.16
2022-12-18T00:39:29.553Z,-3.15
2022-12-18T00:42:16.240Z,-3.16
2022-12-18T00:44:46.103Z,-3.17
2022-12-18T00:47:17.640Z,-3.17
2022-12-18T00:49:49.484Z,-3.18
2022-12-18T00:52:19.732Z,-3.17
2022-12-18T00:54:49.407Z,-3.18
2022-12-18T00:57:18.779Z,-3.18
2022-12-18T00:59:48.392Z,-3.17
2022-12-18T01:02:17.704Z,-3.17
2022-12-18T01:04:52.939Z,-3.16
2022-12-18T01:07:22.600Z,-3.17
2022-12-18T01:09:51.240Z,-3.16
2022-12-18T01:12:22.307Z,-3.16
2022-12-18T01:14:54.046Z,-3.18
2022-12-18T01:17:23.975Z,-3.18
2022-12-18T01:19:54.012Z,-3.17
2022-12-18T01:22:23.486Z,-3.18
2022-12-18T01:24:53.832Z,-3.19
2022-12-18T01:27:25.940Z,-3.20
2022-12-18T01:29:55.760Z,-3.21
2022-12-18T01:32:25.598Z,-3.22
2022-12-18T01:34:56.384Z,-3.23
2022-12-18T01:37:29.248Z,-3.25
2022-12-18T01:39:57.872Z,-3.26
2022-12-18T01:42:27.945Z,-3.28
2022-12-18T01:45:04.570Z,-3.28
2022-12-18T01:47:42.457Z,-3.27
2022-12-18T01:50:18.082Z,-3.26
2022-12-18T01:52:51.000Z,-3.27
2022-12-18T01:55:22.944Z,-3.25
2022-12-18T01:57:55.121Z,-3.26
2022-12-18T02:00:26.829Z,-3.24
2022-12-18T02:02:58.736Z,-3.23
2022-12-18T02:05:43.134Z,-3.24
2022-12-18T02:08:18.608Z,-3.25
2022-12-18T02:10:57.452Z,-3.23
2022-12-18T02:13:34.969Z,-3.22
2022-12-18T02:16:12.353Z,-3.21
2022-12-18T02:18:46.623Z,-3.20
2022-12-18T02:21:37.926Z,-3.21
2022-12-18T02:24:21.172Z,-3.20
2022-12-18T02:26:59.078Z,-3.22
2022-12-18T02:29:34.310Z,-3.20
2022-12-18T02:32:08.841Z,-3.19
2022-12-18T02:34:42.812Z,-3.19
2022-12-18T02:37:20.962Z,-3.19
2022-12-18T02:39:56.939Z,-3.19
2022-12-18T02:42:31.302Z,-3.19
2022-12-18T02:45:01.626Z,-3.19
2022-12-18T02:47:33.929Z,-3.19
2022-12-18T02:50:16.476Z,-3.18
2022-12-18T02:52:58.902Z,-3.19
2022-12-18T02:55:42.368Z,-3.18
2022-12-18T02:58:23.613Z,-3.17
2022-12-18T03:01:03.205Z,-3.17
2022-12-18T03:03:42.369Z,-3.18
2022-12-18T03:06:21.140Z,-3.18
2022-12-18T03:08:57.182Z,-3.18
2022-12-18T03:11:49.331Z,-3.17
2022-12-18T03:14:30.326Z,-3.18
2022-12-18T03:17:05.452Z,-3.19
2022-12-18T03:19:36.834Z,-3.18
2022-12-18T03:22:11.051Z,-3.19
2022-12-18T03:24:50.785Z,-3.20
2022-12-18T03:27:24.670Z,-3.19
2022-12-18T03:30:11.236Z,-3.20
2022-12-18T03:32:54.574Z,-3.19
2022-12-18T03:35:33.491Z,-3.19
2022-12-18T03:38:05.706Z,-3.19
2022-12-18T03:40:46.559Z,-3.19
2022-12-18T03:43:26.674Z,-3.18
2022-12-18T03:46:07.078Z,-3.16
2022-12-18T03:48:45.165Z,-3.15
2022-12-18T03:51:26.795Z,-3.14
2022-12-18T03:54:00.530Z,-3.11
2022-12-18T03:56:40.430Z,-3.10
2022-12-18T03:59:16.575Z,-3.08
2022-12-18T04:01:56.198Z,-3.06
2022-12-18T04:04:28.480Z,-3.04
2022-12-18T04:07:00.722Z,-3.03
2022-12-18T04:09:35.402Z,-2.99
2022-12-18T04:12:05.739Z,-2.97
2022-12-18T04:14:36.780Z,-2.95
2022-12-18T04:17:10.335Z,-2.94
2022-12-18T04:19:40.057Z,-2.91
2022-12-18T04:22:16.550Z,-2.88
2022-12-18T04:24:53.057Z,-2.89
2022-12-18T04:27:32.216Z,-2.88
2022-12-18T04:30:02.860Z,-2.86
2022-12-18T04:32:36.211Z,-2.85
2022-12-18T04:35:08.585Z,-2.84
2022-12-18T04:37:37.544Z,-2.83
2022-12-18T04:40:08.597Z,-2.82
2022-12-18T04:42:46.559Z,-2.80
2022-12-18T04:45:16.721Z,-2.80
2022-12-18T04:47:47.731Z,-2.79
2022-12-18T04:50:17.444Z,-2.78
2022-12-18T04:52:48.101Z,-2.78
2022-12-18T04:55:17.772Z,-2.76
2022-12-18T04:57:49.524Z,-2.78
2022-12-18T05:00:19.873Z,-2.76
2022-12-18T05:02:50.918Z,-2.75
2022-12-18T05:05:20.688Z,-2.74
2022-12-18T05:07:50.756Z,-2.73
2022-12-18T05:10:21.063Z,-2.71
2022-12-18T05:13:03.284Z,-2.70
2022-12-18T05:15:36.420Z,-2.68
2022-12-18T05:18:08.223Z,-2.66
2022-12-18T05:20:37.906Z,-2.64
2022-12-18T05:23:07.532Z,-2.64
2022-12-18T05:25:40.056Z,-2.62
2022-12-18T05:28:08.857Z,-2.61
2022-12-18T05:30:41.682Z,-2.60
2022-12-18T05:33:13.302Z,-2.59
2022-12-18T05:35:45.801Z,-2.61
2022-12-18T05:38:17.688Z,-2.60
2022-12-18T05:40:47.591Z,-2.59
2022-12-18T05:43:21.200Z,-2.58
2022-12-18T05:45:55.125Z,-2.57
2022-12-18T05:48:25.601Z,-2.57
2022-12-18T05:50:54.843Z,-2.54
2022-12-18T05:53:24.471Z,-2.53
2022-12-18T05:55:54.640Z,-2.52
2022-12-18T05:58:24.213Z,-2.51
2022-12-18T06:00:54.191Z,-2.49
2022-12-18T06:03:22.904Z,-2.46
2022-12-18T06:05:54.292Z,-2.45
2022-12-18T06:08:25.705Z,-2.45
2022-12-18T06:10:54.735Z,-2.43
2022-12-18T06:13:24.457Z,-2.42
2022-12-18T06:15:54.162Z,-2.43
2022-12-18T06:18:23.641Z,-2.41
2022-12-18T06:20:59.031Z,-2.41
2022-12-18T06:23:29.308Z,-2.41
2022-12-18T06:25:59.455Z,-2.41
2022-12-18T06:28:28.733Z,-2.41
2022-12-18T06:30:58.029Z,-2.41
2022-12-18T06:33:33.056Z,-2.40
2022-12-18T06:36:04.677Z,-2.41
2022-12-18T06:38:35.029Z,-2.41
2022-12-18T06:41:10.503Z,-2.43
2022-12-18T06:43:40.933Z,-2.42
2022-12-18T06:46:13.678Z,-2.44
2022-12-18T06:48:44.518Z,-2.42
2022-12-18T06:51:19.511Z,-2.42
2022-12-18T06:53:48.443Z,-2.41
2022-12-18T06:56:21.003Z,-2.40
2022-12-18T06:58:53.952Z,-2.39
2022-12-18T07:01:24.590Z,-2.36
2022-12-18T07:03:55.868Z,-2.35
2022-12-18T07:06:28.404Z,-2.33
2022-12-18T07:08:58.042Z,-2.32
2022-12-18T07:11:28.522Z,-2.29
2022-12-18T07:14:05.144Z,-2.27
2022-12-18T07:16:36.008Z,-2.26
2022-12-18T07:19:05.090Z,-2.24
2022-12-18T07:21:35.883Z,-2.23
2022-12-18T07:24:06.186Z,-2.20
2022-12-18T07:26:36.187Z,-2.18
2022-12-18T07:29:05.555Z,-2.16
2022-12-18T07:31:35.602Z,-2.13
2022-12-18T07:34:11.946Z,-2.12
2022-12-18T07:36:44.054Z,-2.07
2022-12-18T07:39:14.262Z,-2.07
2022-12-18T07:42:07.108Z,-2.05
2022-12-18T07:44:37.095Z,-2.01
2022-12-18T07:47:12.138Z,-2.01
2022-12-18T07:49:42.640Z,-2.00
2022-12-18T07:52:14.414Z,-1.99
2022-12-18T07:54:51.237Z,-1.97
2022-12-18T07:57:48.813Z,-1.97
2022-12-18T08:00:14.009Z,-1.94
2022-12-18T08:02:43.774Z,-1.92
2022-12-18T08:05:15.550Z,-1.91
2022-12-18T08:07:49.273Z,-1.89
2022-12-18T08:10:19.934Z,-1.89
2022-12-18T08:12:52.209Z,-1.87
2022-12-18T08:15:21.322Z,-1.85
2022-12-18T08:17:50.543Z,-1.83
2022-12-18T08:20:20.299Z,-1.82
2022-12-18T08:22:54.775Z,-1.79
2022-12-18T08:25:27.518Z,-1.77
2022-12-18T08:27:58.000Z,-1.74
2022-12-18T08:30:27.289Z,-1.72
2022-12-18T08:32:57.202Z,-1.69
2022-12-18T08:35:29.548Z,-1.65
2022-12-18T08:38:22.257Z,-1.60
2022-12-18T08:40:52.406Z,-1.56
2022-12-18T08:43:38.879Z,-1.50
2022-12-18T08:46:09.596Z,-1.47
2022-12-18T08:48:39.789Z,-1.43
2022-12-18T08:51:10.777Z,-1.39
2022-12-18T08:53:42.117Z,-1.35
2022-12-18T08:56:11.854Z,-1.29
2022-12-18T08:58:42.039Z,-1.25
2022-12-18T09:01:13.676Z,-1.22
2022-12-18T09:03:44.509Z,-1.16
2022-12-18T09:06:20.221Z,-1.13
2022-12-18T09:08:52.371Z,-1.08
2022-12-18T09:11:23.953Z,-1.02
2022-12-18T09:13:55.481Z,-0.97
2022-12-18T09:16:31.981Z,-0.93
2022-12-18T09:19:03.034Z,-0.89
2022-12-18T09:21:36.833Z,-0.85
2022-12-18T09:24:09.266Z,-0.80
2022-12-18T09:26:38.697Z,-0.77
2022-12-18T09:29:10.312Z,-0.71
2022-12-18T09:31:42.104Z,-0.67
2022-12-18T09:34:12.081Z,-0.62
2022-12-18T09:36:41.691Z,-0.56
2022-12-18T09:39:12.082Z,-0.51
2022-12-18T09:41:48.023Z,-0.46
2022-12-18T09:44:25.265Z,-0.38
2022-12-18T09:47:13.351Z,-0.32
2022-12-18T09:49:45.791Z,-0.26
2022-12-18T09:52:21.948Z,-0.20
2022-12-18T09:57:58.771Z,-0.09
2022-12-18T10:00:31.035Z,-0.05
2022-12-18T10:03:03.987Z,0.00
2022-12-18T10:05:43.512Z,0.05
2022-12-18T10:08:19.531Z,0.09
2022-12-18T10:11:00.110Z,0.12
2022-12-18T10:13:36.391Z,0.17
2022-12-18T10:16:18.539Z,0.21
2022-12-18T10:19:08.139Z,0.27
2022-12-18T10:21:46.170Z,0.29
2022-12-18T10:24:26.322Z,0.34
2022-12-18T10:27:04.765Z,0.38
2022-12-18T10:29:34.505Z,0.41
2022-12-18T10:32:06.764Z,0.46
2022-12-18T10:34:37.876Z,0.51
2022-12-18T10:37:17.643Z,0.55
2022-12-18T10:39:47.362Z,0.59
2022-12-18T10:42:25.969Z,0.63
2022-12-18T10:45:04.367Z,0.70
2022-12-18T10:47:36.115Z,0.73
2022-12-18T10:50:06.832Z,0.77
2022-12-18T10:52:43.625Z,0.82
2022-12-18T10:55:20.339Z,0.85
2022-12-18T10:57:54.965Z,0.89
2022-12-18T11:00:29.545Z,0.93
2022-12-18T11:03:00.414Z,0.96
2022-12-18T11:05:32.870Z,1.00
2022-12-18T11:08:05.679Z,1.04
2022-12-18T11:10:37.900Z,1.06
2022-12-18T11:13:20.635Z,1.10
2022-12-18T11:15:51.107Z,1.13
2022-12-18T11:18:27.524Z,1.15
2022-12-18T11:21:00.415Z,1.18
2022-12-18T11:23:30.712Z,1.20
2022-12-18T11:26:03.967Z,1.23
2022-12-18T11:28:44.654Z,1.29
2022-12-18T11:31:26.780Z,1.32
2022-12-18T11:37:05.825Z,1.39
2022-12-18T11:39:40.408Z,1.42
2022-12-18T11:42:18.776Z,1.42
2022-12-18T11:45:00.504Z,1.44
2022-12-18T11:47:39.775Z,1.45
2022-12-18T11:50:18.127Z,1.47
2022-12-18T11:52:51.503Z,1.48
2022-12-18T11:55:37.816Z,1.50
2022-12-18T11:58:18.411Z,1.50
2022-12-18T12:00:58.936Z,1.53
2022-12-18T12:03:49.546Z,1.52
2022-12-18T12:06:26.493Z,1.54
2022-12-18T12:09:07.607Z,1.54
2022-12-18T12:11:50.387Z,1.55
2022-12-18T12:14:45.267Z,1.56
2022-12-18T12:17:24.320Z,1.58
2022-12-18T12:20:05.434Z,1.57
2022-12-18T12:22:46.879Z,1.58
2022-12-18T12:25:30.140Z,1.59
2022-12-18T12:28:12.258Z,1.59
2022-12-18T12:30:59.415Z,1.59
2022-12-18T12:33:44.450Z,1.59
2022-12-18T12:36:27.775Z,1.58
2022-12-18T12:39:03.639Z,1.55
2022-12-18T12:41:53.422Z,1.53
2022-12-18T12:44:29.679Z,1.50
2022-12-18T12:47:14.857Z,1.50
2022-12-18T12:49:51.609Z,1.50
2022-12-18T12:52:33.693Z,1.49
2022-12-18T12:55:14.899Z,1.48
2022-12-18T12:57:51.976Z,1.46
2022-12-18T13:00:23.434Z,1.44
2022-12-18T13:02:59.472Z,1.43
2022-12-18T13:05:40.758Z,1.42
2022-12-18T13:08:13.376Z,1.41
2022-12-18T13:10:47.037Z,1.37
2022-12-18T13:13:23.571Z,1.35
2022-12-18T13:16:12.217Z,1.34
2022-12-18T13:18:53.064Z,1.32
2022-12-18T13:21:30.016Z,1.29
2022-12-18T13:24:17.856Z,1.29
2022-12-18T13:26:46.999Z,1.28
2022-12-18T13:29:43.530Z,1.28
2022-12-18T13:32:26.411Z,1.25
2022-12-18T13:35:33.258Z,1.24
2022-12-18T13:38:05.196Z,1.24
2022-12-18T13:40:57.775Z,1.22
2022-12-18T13:43:44.066Z,1.21
2022-12-18T13:46:26.945Z,1.21
2022-12-18T13:49:05.995Z,1.20
2022-12-18T13:51:38.317Z,1.19
2022-12-18T13:54:28.655Z,1.18
2022-12-18T13:56:58.146Z,1.17
2022-12-18T13:59:30.084Z,1.15
2022-12-18T14:02:05.757Z,1.15
2022-12-18T14:04:38.190Z,1.13
2022-12-18T14:07:09.958Z,1.13
2022-12-18T14:09:47.186Z,1.13
2022-12-18T14:12:41.148Z,1.09
2022-12-18T14:15:34.287Z,1.10
2022-12-18T14:18:18.138Z,1.11
2022-12-18T14:20:53.325Z,1.07
2022-12-18T14:23:32.798Z,1.07
2022-12-18T14:26:06.241Z,1.04
2022-12-18T14:28:35.778Z,1.03
2022-12-18T14:31:05.294Z,1.01
2022-12-18T14:33:34.650Z,0.99
2022-12-18T14:36:06.443Z,1.00
2022-12-18T14:38:38.276Z,0.99
2022-12-18T14:41:13.439Z,0.98
2022-12-18T14:43:44.535Z,0.98
2022-12-18T14:46:36.871Z,0.96
2022-12-18T14:49:23.345Z,0.95
2022-12-18T14:51:56.884Z,0.94
2022-12-18T14:54:28.316Z,0.94
2022-12-18T14:57:05.798Z,0.94
2022-12-18T14:59:39.236Z,0.92
2022-12-18T15:02:20.026Z,0.91
2022-12-18T15:04:49.334Z,0.90
2022-12-18T15:07:22.764Z,0.90
2022-12-18T15:10:06.576Z,0.91
2022-12-18T15:12:39.680Z,0.91
2022-12-18T15:15:42.387Z,0.90
2022-12-18T15:18:16.311Z,0.88
2022-12-18T15:20:49.489Z,0.88
2022-12-18T15:23:24.517Z,0.86
2022-12-18T15:26:01.705Z,0.86
2022-12-18T15:28:38.953Z,0.86
2022-12-18T15:31:27.273Z,0.86
2022-12-18T15:34:12.081Z,0.85
2022-12-18T15:36:41.708Z,0.85
2022-12-18T15:39:14.174Z,0.83
2022-12-18T15:42:05.942Z,0.83
2022-12-18T15:44:35.401Z,0.80
2022-12-18T15:47:04.587Z,0.78
2022-12-18T15:49:34.807Z,0.78
2022-12-18T15:52:05.284Z,0.76
2022-12-18T15:54:54.882Z,0.74
2022-12-18T15:57:27.787Z,0.73
2022-12-18T15:59:59.464Z,0.71
2022-12-18T16:02:30.345Z,0.69
2022-12-18T16:04:59.393Z,0.68
2022-12-18T16:07:30.753Z,0.66
2022-12-18T16:10:01.256Z,0.63
2022-12-18T16:12:32.129Z,0.63
2022-12-18T16:15:03.509Z,0.61
2022-12-18T16:17:32.908Z,0.59
2022-12-18T16:20:02.617Z,0.58
2022-12-18T16:22:33.543Z,0.57
2022-12-18T16:25:04.194Z,0.55
2022-12-18T16:27:33.697Z,0.56
2022-12-18T16:30:04.619Z,0.56
2022-12-18T16:32:34.454Z,0.54
2022-12-18T16:35:03.833Z,0.53
2022-12-18T16:37:34.175Z,0.52
2022-12-18T16:40:03.667Z,0.50
2022-12-18T16:42:32.856Z,0.50
2022-12-18T16:45:03.823Z,0.50
2022-12-18T16:47:33.027Z,0.48
2022-12-18T16:50:02.888Z,0.47
2022-12-18T16:52:32.477Z,0.45
2022-12-18T16:55:02.357Z,0.45
2022-12-18T16:57:32.284Z,0.43
2022-12-18T17:00:05.927Z,0.45
2022-12-18T17:02:35.995Z,0.42
2022-12-18T17:05:06.264Z,0.40
2022-12-18T17:07:35.648Z,0.40
2022-12-18T17:10:07.924Z,0.38
2022-12-18T17:12:37.490Z,0.38
2022-12-18T17:15:11.128Z,0.38
2022-12-18T17:17:39.973Z,0.38
2022-12-18T17:20:10.443Z,0.36
2022-12-18T17:22:39.217Z,0.36
2022-12-18T17:25:09.036Z,0.35
2022-12-18T17:27:38.621Z,0.34
2022-12-18T17:30:11.652Z,0.34
2022-12-18T17:32:41.464Z,0.34
2022-12-18T17:35:10.868Z,0.33
2022-12-18T17:37:40.142Z,0.32
2022-12-18T17:40:11.071Z,0.31
2022-12-18T17:42:40.545Z,0.29
2022-12-18T17:45:12.448Z,0.27
2022-12-18T17:47:42.155Z,0.25
2022-12-18T17:50:11.473Z,0.24
2022-12-18T17:52:40.746Z,0.24
2022-12-18T17:55:10.884Z,0.23
2022-12-18T17:57:40.397Z,0.22
2022-12-18T18:00:12.664Z,0.20
2022-12-18T18:02:44.310Z,0.20
2022-12-18T18:05:14.595Z,0.18
2022-12-18T18:07:49.132Z,0.17
2022-12-18T18:10:19.512Z,0.17
2022-12-18T18:13:06.952Z,0.15
2022-12-18T18:15:39.637Z,0.14
2022-12-18T18:18:08.591Z,0.13
2022-12-18T18:20:44.045Z,0.13
2022-12-18T18:23:13.036Z,0.11
2022-12-18T18:25:42.371Z,0.11
2022-12-18T18:28:12.058Z,0.11
2022-12-18T18:30:43.125Z,0.10
2022-12-18T18:33:12.885Z,0.09
2022-12-18T18:35:59.360Z,0.09
2022-12-18T18:38:29.293Z,0.10
2022-12-18T18:41:03.773Z,0.08
2022-12-18T18:43:35.208Z,0.08
2022-12-18T18:46:14.006Z,0.08
2022-12-18T18:48:43.996Z,0.07
2022-12-18T18:51:21.074Z,0.07
2022-12-18T18:53:53.231Z,0.06
2022-12-18T18:56:56.333Z,0.04
2022-12-18T18:59:19.771Z,0.04
2022-12-18T19:01:55.723Z,0.03
2022-12-18T19:04:29.008Z,0.03
2022-12-18T19:06:58.641Z,0.05
2022-12-18T19:09:30.113Z,0.04
2022-12-18T19:12:18.931Z,0.04
2022-12-18T19:14:50.976Z,0.04
2022-12-18T19:17:29.428Z,0.06
2022-12-18T19:19:59.480Z,0.07
2022-12-18T19:22:36.839Z,0.07
2022-12-18T19:25:06.762Z,0.08
2022-12-18T19:27:39.129Z,0.09
2022-12-18T19:30:10.206Z,0.10
2022-12-18T19:32:47.284Z,0.11
2022-12-18T19:35:16.970Z,0.12
2022-12-18T19:37:46.591Z,0.13
2022-12-18T19:40:19.260Z,0.13
2022-12-18T19:42:52.250Z,0.14
2022-12-18T19:45:23.123Z,0.14
2022-12-18T19:47:54.954Z,0.16
2022-12-18T19:50:30.299Z,0.17
2022-12-18T19:53:02.768Z,0.19
2022-12-18T19:55:34.232Z,0.19
2022-12-18T19:58:03.951Z,0.19
2022-12-18T20:00:43.108Z,0.20
2022-12-18T20:03:23.493Z,0.21
2022-12-18T20:05:56.511Z,0.23
2022-12-18T20:08:27.509Z,0.25
2022-12-18T20:10:57.083Z,0.26
2022-12-18T20:13:29.766Z,0.26
2022-12-18T20:15:59.571Z,0.27
2022-12-18T20:18:30.570Z,0.27
2022-12-18T20:21:02.033Z,0.30
2022-12-18T20:23:36.013Z,0.31
2022-12-18T20:26:06.270Z,0.31
2022-12-18T20:28:40.359Z,0.32
2022-12-18T20:31:13.373Z,0.33
2022-12-18T20:33:48.740Z,0.34
2022-12-18T20:36:25.951Z,0.35
2022-12-18T20:39:00.417Z,0.35
2022-12-18T20:41:36.426Z,0.36
2022-12-18T20:44:21.955Z,0.36
2022-12-18T20:46:57.766Z,0.37
2022-12-18T20:49:29.254Z,0.37
2022-12-18T20:51:58.874Z,0.37
2022-12-18T20:54:28.947Z,0.37
2022-12-18T20:56:58.314Z,0.37
2022-12-18T20:59:27.796Z,0.36
2022-12-18T21:01:57.353Z,0.37
2022-12-18T21:04:27.303Z,0.37
2022-12-18T21:07:02.590Z,0.37
2022-12-18T21:09:38.420Z,0.38
2022-12-18T21:12:30.285Z,0.38
2022-12-18T21:15:08.170Z,0.39
2022-12-18T21:17:44.066Z,0.39
2022-12-18T21:20:17.982Z,0.39
2022-12-18T21:22:49.917Z,0.40
2022-12-18T21:25:19.090Z,0.42
2022-12-18T21:27:48.473Z,0.42
2022-12-18T21:30:17.507Z,0.43
2022-12-18T21:32:47.271Z,0.45
2022-12-18T21:35:18.144Z,0.46
2022-12-18T21:37:50.560Z,0.47
2022-12-18T21:40:21.383Z,0.47
2022-12-18T21:43:07.529Z,0.49
2022-12-18T21:45:39.935Z,0.50
2022-12-18T21:48:11.288Z,0.52
2022-12-18T21:50:41.150Z,0.54
2022-12-18T21:53:16.664Z,0.52
2022-12-18T21:55:45.942Z,0.54
2022-12-18T21:58:15.758Z,0.53
2022-12-18T22:00:48.683Z,0.54
2022-12-18T22:03:20.471Z,0.55
2022-12-18T22:05:51.980Z,0.55
2022-12-18T22:08:43.774Z,0.56
2022-12-18T22:11:15.904Z,0.55
2022-12-18T22:13:48.295Z,0.57
2022-12-18T22:16:18.505Z,0.57
2022-12-18T22:18:48.842Z,0.57
2022-12-18T22:21:29.240Z,0.57
2022-12-18T22:24:01.567Z,0.57
2022-12-18T22:26:37.878Z,0.57
2022-12-18T22:29:27.008Z,0.58
2022-12-18T22:31:56.549Z,0.58
2022-12-18T22:34:26.326Z,0.58
2022-12-18T22:36:55.912Z,0.59
2022-12-18T22:39:30.661Z,0.58
2022-12-18T22:42:00.910Z,0.60
2022-12-18T22:44:31.689Z,0.60
2022-12-18T22:47:06.279Z,0.61
2022-12-18T22:49:38.823Z,0.62
2022-12-18T22:52:10.021Z,0.63
2022-12-18T22:54:41.000Z,0.63
2022-12-18T22:57:11.075Z,0.64
2022-12-18T22:59:41.341Z,0.67
2022-12-18T23:02:10.751Z,0.66
2022-12-18T23:04:39.929Z,0.68
2022-12-18T23:07:09.063Z,0.70
2022-12-18T23:09:42.148Z,0.69
2022-12-18T23:12:19.645Z,0.71
2022-12-18T23:14:48.451Z,0.72
2022-12-18T23:17:18.710Z,0.75
2022-12-18T23:19:49.505Z,0.75
2022-12-18T23:22:19.860Z,0.76
2022-12-18T23:24:50.079Z,0.77
2022-12-18T23:27:18.472Z,0.79
2022-12-18T23:29:47.346Z,0.79
2022-12-18T23:32:17.766Z,0.81
2022-12-18T23:34:48.339Z,0.81
2022-12-18T23:37:49.945Z,0.82
2022-12-18T23:40:12.699Z,0.83
2022-12-18T23:42:41.298Z,0.84
2022-12-18T23:45:16.563Z,0.86
2022-12-18T23:47:51.141Z,0.85
2022-12-18T23:50:24.056Z,0.88
2022-12-18T23:53:05.090Z,0.88
2022-12-18T23:55:40.918Z,0.90
2022-12-18T23:58:17.918Z,0.90
